createdAt,value
2019-05-15T00:02:58.822Z,12.27
2019-05-15T00:08:02.547Z,11.67
2019-05-15T00:13:08.983Z,10.70
2019-05-15T00:18:12.575Z,14.47
2019-05-15T00:23:18.319Z,13.33
2019-05-15T00:28:22.582Z,10.97
2019-05-15T00:33:28.629Z,12.33
2019-05-15T00:38:32.331Z,11.47
2019-05-15T00:43:38.509Z,15.00
2019-05-15T00:48:42.099Z,17.33
2019-05-15T00:53:48.165Z,13.47
2019-05-15T00:58:51.761Z,13.97
2019-05-15T01:03:58.430Z,12.17
2019-05-15T01:09:01.779Z,10.73
2019-05-15T01:14:05.804Z,13.17
2019-05-15T01:19:09.931Z,14.03
2019-05-15T01:24:13.979Z,11.63
2019-05-15T01:29:18.344Z,17.43
2019-05-15T01:34:23.468Z,10.80
2019-05-15T01:39:29.099Z,12.97
2019-05-15T01:44:33.300Z,12.03
2019-05-15T01:49:38.413Z,13.37
2019-05-15T02:00:03.320Z,13.57
2019-05-15T02:05:11.914Z,9.67
2019-05-15T02:10:22.598Z,15.90
2019-05-15T02:15:31.923Z,18.60
2019-05-15T02:20:38.619Z,16.37
2019-05-15T02:25:42.274Z,14.80
2019-05-15T02:30:50.022Z,21.43
2019-05-15T02:35:59.540Z,12.13
2019-05-15T02:41:11.602Z,19.03
2019-05-15T02:46:20.065Z,13.70
2019-05-15T02:51:24.909Z,14.77
2019-05-15T02:56:32.749Z,25.20
2019-05-15T03:01:42.729Z,16.53
2019-05-15T03:06:51.055Z,15.27
2019-05-15T03:11:59.646Z,15.43
2019-05-15T03:17:09.765Z,19.53
2019-05-15T03:22:22.315Z,17.93
2019-05-15T03:27:34.947Z,19.47
2019-05-15T03:32:53.028Z,22.27
2019-05-15T03:37:55.395Z,18.43
2019-05-15T03:43:00.009Z,24.37
2019-05-15T03:48:11.377Z,20.73
2019-05-15T03:53:19.217Z,24.73
2019-05-15T03:58:28.819Z,24.77
2019-05-15T04:03:38.995Z,18.70
2019-05-15T04:08:49.824Z,24.63
2019-05-15T04:13:59.996Z,28.23
2019-05-15T04:19:10.027Z,24.53
2019-05-15T04:24:19.254Z,22.40
2019-05-15T04:29:23.655Z,40.87
2019-05-15T04:34:33.036Z,26.33
2019-05-15T04:39:41.692Z,26.30
2019-05-15T04:44:49.676Z,31.03
2019-05-15T04:49:54.860Z,24.87
2019-05-15T04:55:02.455Z,22.40
2019-05-15T05:00:11.367Z,24.50
2019-05-15T05:05:20.688Z,26.27
2019-05-15T05:10:29.856Z,19.03
2019-05-15T05:15:39.487Z,37.00
2019-05-15T05:20:44.991Z,32.37
2019-05-15T05:25:57.971Z,30.00
2019-05-15T05:31:14.315Z,35.43
2019-05-15T05:36:28.006Z,25.77
2019-05-15T05:41:44.327Z,24.03
2019-05-15T05:46:54.447Z,25.30
2019-05-15T05:52:04.316Z,31.93
2019-05-15T05:57:09.927Z,29.10
2019-05-15T06:02:18.558Z,32.33
2019-05-15T06:07:23.006Z,27.17
2019-05-15T06:12:29.999Z,20.07
2019-05-15T06:17:41.966Z,27.70
2019-05-15T06:22:57.996Z,20.63
2019-05-15T06:28:10.002Z,21.23
2019-05-15T06:33:20.021Z,25.77
2019-05-15T06:38:31.841Z,27.40
2019-05-15T06:43:41.538Z,27.97
2019-05-15T06:48:45.751Z,24.07
2019-05-15T06:53:58.186Z,23.17
2019-05-15T06:59:09.068Z,25.43
2019-05-15T07:04:18.290Z,24.00
2019-05-15T07:09:30.660Z,25.90
2019-05-15T07:14:39.127Z,25.80
2019-05-15T07:19:48.813Z,22.00
2019-05-15T07:24:55.208Z,32.00
2019-05-15T07:30:08.038Z,24.70
2019-05-15T07:35:16.139Z,23.67
2019-05-15T07:40:24.916Z,26.27
2019-05-15T07:45:35.243Z,28.20
2019-05-15T07:50:42.400Z,25.33
2019-05-15T07:55:51.606Z,27.43
2019-05-15T08:01:05.625Z,23.70
2019-05-15T08:06:10.640Z,22.27
2019-05-15T08:11:20.773Z,22.60
2019-05-15T08:16:24.679Z,26.47
2019-05-15T08:21:33.187Z,25.37
2019-05-15T08:26:45.302Z,20.47
2019-05-15T08:31:51.020Z,20.03
2019-05-15T08:36:59.563Z,30.47
2019-05-15T08:42:07.967Z,29.77
2019-05-15T08:47:12.876Z,17.53
2019-05-15T08:52:18.978Z,25.83
2019-05-15T08:57:25.300Z,30.50
2019-05-15T09:02:29.399Z,33.70
2019-05-15T09:07:33.618Z,22.43
2019-05-15T09:12:43.567Z,30.23
2019-05-15T09:18:08.084Z,29.30
2019-05-15T09:23:09.926Z,31.77
2019-05-15T09:28:18.757Z,28.90
2019-05-15T09:33:25.182Z,25.90
2019-05-15T09:38:30.334Z,29.73
2019-05-15T09:43:38.534Z,27.77
2019-05-15T09:48:51.573Z,21.60
2019-05-15T09:53:59.400Z,28.90
2019-05-15T09:59:08.917Z,22.17
2019-05-15T10:04:14.000Z,26.93
2019-05-15T10:09:19.164Z,26.70
2019-05-15T10:14:26.349Z,27.70
2019-05-15T10:19:31.083Z,29.73
2019-05-15T10:24:35.259Z,27.57
2019-05-15T10:29:43.622Z,23.83
2019-05-15T10:34:52.454Z,29.97
2019-05-15T10:39:59.617Z,25.50
2019-05-15T10:45:08.797Z,18.57
2019-05-15T10:50:18.957Z,27.17
2019-05-15T10:55:24.395Z,30.57
2019-05-15T11:00:29.404Z,29.30
2019-05-15T11:05:41.845Z,22.03
2019-05-15T11:10:44.577Z,27.20
2019-05-15T11:15:49.631Z,29.43
2019-05-15T11:20:54.817Z,27.60
2019-05-15T11:26:04.563Z,33.70
2019-05-15T11:31:10.561Z,27.07
2019-05-15T11:36:18.345Z,26.20
2019-05-15T11:41:21.520Z,23.13
2019-05-15T11:46:29.336Z,24.97
2019-05-15T11:51:42.037Z,32.27
2019-05-15T11:56:49.063Z,28.23
2019-05-15T12:01:58.040Z,28.73
2019-05-15T12:07:08.691Z,21.37
2019-05-15T12:12:17.934Z,26.77
2019-05-15T12:17:23.035Z,31.23
2019-05-15T12:22:31.423Z,23.37
2019-05-15T12:27:40.085Z,24.13
2019-05-15T12:32:52.479Z,20.47
2019-05-15T12:37:59.270Z,27.20
2019-05-15T13:03:49.526Z,26.37
2019-05-15T13:08:59.633Z,25.77
2019-05-15T13:14:04.414Z,24.50
2019-05-15T13:19:10.790Z,31.53
2019-05-15T13:24:20.711Z,26.07
2019-05-15T13:29:28.768Z,20.93
2019-05-15T13:34:32.106Z,21.77
2019-05-15T13:39:42.664Z,27.80
2019-05-15T13:44:53.416Z,24.93
2019-05-15T13:49:59.151Z,27.73
2019-05-15T13:55:10.295Z,21.13
2019-05-15T14:00:23.163Z,19.53
2019-05-15T14:05:33.093Z,27.67
2019-05-15T14:10:48.743Z,26.50
2019-05-15T14:15:58.982Z,23.43
2019-05-15T14:21:04.335Z,24.27
2019-05-15T14:26:17.762Z,23.73
2019-05-15T14:31:23.025Z,26.17
2019-05-15T14:36:36.192Z,21.60
2019-05-15T14:41:51.128Z,23.20
2019-05-15T14:47:03.262Z,20.47
2019-05-15T14:52:22.103Z,19.87
2019-05-15T14:57:33.822Z,19.60
2019-05-15T15:02:39.160Z,19.90
2019-05-15T15:07:49.364Z,23.23
2019-05-15T15:12:58.606Z,28.77
2019-05-15T15:18:09.986Z,17.27
2019-05-15T15:23:16.810Z,16.30
2019-05-15T15:28:28.002Z,17.63
2019-05-15T15:33:32.853Z,16.67
2019-05-15T15:38:45.287Z,14.03
2019-05-15T15:43:58.203Z,21.30
2019-05-15T15:49:16.948Z,16.87
2019-05-15T15:54:33.335Z,20.77
2019-05-15T15:59:49.110Z,17.43
2019-05-15T16:05:09.050Z,22.33
2019-05-15T16:10:25.000Z,14.40
2019-05-15T16:15:32.035Z,16.50
2019-05-15T16:20:48.580Z,15.13
2019-05-15T16:26:03.322Z,12.77
2019-05-15T16:31:18.615Z,13.67
2019-05-15T16:36:25.324Z,11.80
2019-05-15T16:41:41.371Z,14.33
2019-05-15T16:47:02.394Z,17.20
2019-05-15T16:52:16.211Z,14.87
2019-05-15T16:57:32.925Z,13.53
2019-05-15T17:03:08.547Z,15.80
2019-05-15T17:08:09.874Z,12.30
2019-05-15T17:13:30.623Z,15.40
2019-05-15T17:18:55.382Z,15.53
2019-05-15T17:24:17.840Z,15.90
2019-05-15T17:29:40.285Z,10.90
2019-05-15T17:34:58.941Z,15.63
2019-05-15T17:40:13.450Z,24.00
2019-05-15T17:45:33.324Z,17.87
2019-05-15T17:50:48.694Z,11.37
2019-05-15T17:55:48.703Z,16.13
2019-05-15T18:00:59.653Z,13.27
2019-05-15T18:06:10.542Z,18.37
2019-05-15T18:11:18.808Z,12.30
2019-05-15T18:16:31.490Z,13.50
2019-05-15T18:21:43.879Z,14.73
2019-05-15T18:26:58.478Z,12.30
2019-05-15T18:32:03.835Z,12.53
2019-05-15T18:37:14.822Z,12.40
2019-05-15T18:42:25.869Z,15.53
2019-05-15T18:47:31.480Z,19.90
2019-05-15T18:52:38.586Z,11.10
2019-05-15T18:57:48.660Z,15.37
2019-05-15T19:02:59.633Z,12.07
2019-05-15T19:08:08.487Z,11.70
2019-05-15T19:13:16.425Z,12.80
2019-05-15T19:18:27.918Z,12.50
2019-05-15T19:23:47.859Z,15.30
2019-05-15T19:28:59.147Z,12.03
2019-05-15T19:34:08.524Z,11.23
2019-05-15T19:39:19.014Z,11.50
2019-05-15T19:44:28.354Z,18.97
2019-05-15T19:49:37.841Z,14.93
2019-05-15T19:54:48.131Z,15.70
2019-05-15T19:59:58.302Z,18.30
2019-05-15T20:05:06.029Z,15.23
2019-05-15T20:10:14.855Z,13.67
2019-05-15T20:15:19.591Z,13.13
2019-05-15T20:20:29.104Z,15.47
2019-05-15T20:25:38.453Z,14.93
2019-05-15T20:30:44.174Z,112.57
2019-05-15T20:35:53.143Z,68.13
2019-05-15T20:40:59.676Z,53.13
2019-05-15T20:46:03.118Z,48.00
2019-05-15T20:51:08.619Z,24.13
2019-05-15T20:56:12.782Z,14.57
2019-05-15T21:01:22.342Z,12.37
2019-05-15T21:06:28.923Z,13.90
2019-05-15T21:11:39.780Z,13.50
2019-05-15T21:16:48.485Z,15.03
2019-05-15T21:21:57.913Z,14.77
2019-05-15T21:27:04.949Z,16.77
2019-05-15T21:32:11.746Z,18.63
2019-05-15T21:37:19.113Z,17.90
2019-05-15T21:42:26.803Z,13.83
2019-05-15T21:47:38.612Z,11.90
2019-05-15T21:52:49.681Z,10.77
2019-05-15T21:57:57.752Z,17.97
2019-05-15T22:03:05.369Z,10.03
2019-05-15T22:08:13.591Z,12.10
2019-05-15T22:13:22.454Z,14.97
2019-05-15T22:18:32.625Z,10.17
2019-05-15T22:23:41.126Z,11.27
2019-05-15T22:28:53.453Z,12.30
2019-05-15T22:34:01.742Z,13.60
2019-05-15T22:39:08.666Z,14.20
2019-05-15T22:44:19.176Z,10.53
2019-05-15T22:49:24.473Z,16.77
2019-05-15T22:54:32.611Z,17.57
2019-05-15T22:59:40.742Z,14.87
2019-05-15T23:04:48.053Z,16.83
2019-05-15T23:09:58.325Z,17.67
2019-05-15T23:15:08.401Z,17.80
2019-05-15T23:20:17.838Z,16.63
2019-05-15T23:25:28.964Z,14.63
2019-05-15T23:30:34.485Z,16.47
2019-05-15T23:35:41.633Z,15.40
2019-05-15T23:40:49.122Z,18.03
2019-05-15T23:45:58.872Z,15.53
2019-05-15T23:51:03.386Z,24.03
2019-05-15T23:56:13.325Z,14.10
